createdAt,value
2018-08-03T00:00:08.169Z,30.8
2018-08-03T00:01:09.784Z,31.3
2018-08-03T00:02:11.069Z,31.3
2018-08-03T00:03:12.677Z,31.3
2018-08-03T00:04:14.294Z,31.3
2018-08-03T00:05:15.910Z,30.8
2018-08-03T00:06:17.327Z,30.8
2018-08-03T00:07:18.945Z,30.8
2018-08-03T00:08:20.562Z,31.3
2018-08-03T00:09:22.020Z,30.8
2018-08-03T00:10:23.295Z,30.3
2018-08-03T00:11:24.723Z,31.3
2018-08-03T00:12:26.355Z,30.3
2018-08-03T00:13:27.974Z,31.3
2018-08-03T00:14:29.244Z,30.3
2018-08-03T00:15:31.212Z,30.8
2018-08-03T00:16:32.318Z,30.8
2018-08-03T00:17:33.904Z,30.8
2018-08-03T00:18:35.495Z,30.8
2018-08-03T00:19:36.941Z,30.8
2018-08-03T00:20:38.391Z,30.8
2018-08-03T00:21:39.815Z,30.3
2018-08-03T00:22:41.446Z,30.8
2018-08-03T00:23:42.879Z,30.3
2018-08-03T00:24:44.151Z,31.3
2018-08-03T00:25:45.761Z,30.8
2018-08-03T00:26:47.189Z,30.3
2018-08-03T00:27:48.775Z,30.3
2018-08-03T00:28:50.213Z,30.3
2018-08-03T00:29:51.674Z,30.3
2018-08-03T00:30:53.112Z,30.8
2018-08-03T00:31:54.719Z,30.3
2018-08-03T00:32:56.155Z,30.8
2018-08-03T00:33:57.603Z,30.8
2018-08-03T00:34:59.050Z,30.3
2018-08-03T00:36:00.664Z,30.8
2018-08-03T00:37:02.113Z,30.8
2018-08-03T00:38:03.387Z,29.8
2018-08-03T00:39:04.820Z,30.8
2018-08-03T00:40:06.426Z,29.8
2018-08-03T00:41:08.035Z,30.8
2018-08-03T00:42:09.489Z,30.3
2018-08-03T00:43:11.093Z,30.8
2018-08-03T00:44:12.691Z,29.8
2018-08-03T00:45:14.284Z,30.8
2018-08-03T00:46:15.895Z,30.8
2018-08-03T00:47:17.488Z,30.8
2018-08-03T00:48:18.917Z,30.8
2018-08-03T00:49:20.367Z,30.3
2018-08-03T00:50:21.968Z,30.8
2018-08-03T00:51:23.576Z,30.8
2018-08-03T00:52:25.180Z,30.3
2018-08-03T00:53:26.794Z,30.3
2018-08-03T00:54:28.418Z,30.8
2018-08-03T00:55:30.016Z,30.3
2018-08-03T00:56:31.296Z,29.8
2018-08-03T00:57:32.916Z,30.8
2018-08-03T00:58:34.201Z,30.3
2018-08-03T00:59:35.794Z,29.8
2018-08-03T01:00:37.077Z,29.8
2018-08-03T01:01:38.344Z,30.3
2018-08-03T01:02:39.987Z,30.3
2018-08-03T01:03:41.429Z,30.3
2018-08-03T01:04:43.141Z,29.8
2018-08-03T01:05:44.764Z,30.3
2018-08-03T01:06:46.387Z,29.8
2018-08-03T01:07:47.805Z,29.3
2018-08-03T01:08:49.258Z,30.3
2018-08-03T01:09:50.860Z,30.3
2018-08-03T01:10:52.440Z,29.8
2018-08-03T01:11:54.042Z,29.8
2018-08-03T01:12:55.317Z,30.3
2018-08-03T01:13:56.775Z,30.3
2018-08-03T01:14:58.391Z,30.8
2018-08-03T01:15:59.848Z,30.3
2018-08-03T01:17:01.458Z,29.8
2018-08-03T01:18:02.713Z,29.8
2018-08-03T01:19:04.329Z,29.8
2018-08-03T01:20:05.931Z,29.8
2018-08-03T01:21:07.385Z,30.3
2018-08-03T01:22:09.001Z,30.8
2018-08-03T01:23:10.432Z,30.8
2018-08-03T01:24:11.865Z,30.3
2018-08-03T01:25:12.987Z,30.8
2018-08-03T01:26:14.609Z,30.8
2018-08-03T01:27:16.212Z,30.3
2018-08-03T01:28:17.680Z,30.8
2018-08-03T01:29:19.284Z,30.8
2018-08-03T01:30:20.879Z,30.3
2018-08-03T01:31:22.332Z,30.8
2018-08-03T01:32:23.796Z,30.8
2018-08-03T01:33:25.235Z,30.3
2018-08-03T01:34:26.844Z,31.3
2018-08-03T01:35:28.121Z,31.3
2018-08-03T01:36:29.557Z,30.8
2018-08-03T01:37:31.149Z,30.8
2018-08-03T01:38:32.765Z,31.3
2018-08-03T01:39:34.047Z,31.3
2018-08-03T01:40:35.488Z,32.3
2018-08-03T01:41:36.600Z,31.8
2018-08-03T01:42:38.213Z,31.8
2018-08-03T01:43:39.822Z,31.8
2018-08-03T01:44:41.434Z,31.3
2018-08-03T01:45:43.058Z,32.3
2018-08-03T01:46:44.648Z,31.8
2018-08-03T01:47:46.074Z,31.8
2018-08-03T01:48:47.507Z,32.3
2018-08-03T01:49:49.106Z,32.3
2018-08-03T01:50:50.704Z,31.8
2018-08-03T01:51:51.992Z,32.3
2018-08-03T01:52:53.443Z,32.3
2018-08-03T01:53:55.043Z,32.3
2018-08-03T01:54:56.310Z,32.7
2018-08-03T01:55:57.762Z,32.7
2018-08-03T01:56:59.199Z,32.3
2018-08-03T01:58:00.787Z,32.3
2018-08-03T01:59:02.490Z,32.7
2018-08-03T02:00:03.937Z,32.7
2018-08-03T02:01:05.550Z,32.3
2018-08-03T02:02:07.157Z,32.7
2018-08-03T02:03:08.542Z,32.7
2018-08-03T02:04:10.137Z,33.2
2018-08-03T02:05:11.744Z,32.7
2018-08-03T02:06:13.329Z,31.8
2018-08-03T02:07:14.440Z,32.3
2018-08-03T02:08:15.880Z,31.8
2018-08-03T02:09:17.495Z,32.3
2018-08-03T02:10:18.970Z,32.7
2018-08-03T02:11:20.558Z,32.7
2018-08-03T02:12:22.163Z,31.8
2018-08-03T02:13:23.270Z,32.7
2018-08-03T02:14:24.848Z,32.7
2018-08-03T02:15:26.277Z,32.7
2018-08-03T02:16:27.886Z,32.3
2018-08-03T02:17:29.527Z,32.7
2018-08-03T02:18:30.641Z,32.7
2018-08-03T02:19:32.228Z,32.3
2018-08-03T02:20:33.650Z,32.3
2018-08-03T02:21:35.238Z,32.7
2018-08-03T02:22:36.644Z,31.8
2018-08-03T02:23:38.254Z,33.2
2018-08-03T02:24:39.861Z,33.2
2018-08-03T02:25:41.448Z,32.3
2018-08-03T02:26:43.061Z,32.7
2018-08-03T02:27:44.677Z,32.3
2018-08-03T02:28:46.285Z,32.7
2018-08-03T02:29:47.567Z,31.8
2018-08-03T02:30:49.164Z,32.7
2018-08-03T02:31:50.796Z,32.3
2018-08-03T02:32:52.407Z,33.7
2018-08-03T02:33:53.864Z,32.7
2018-08-03T02:34:55.307Z,32.3
2018-08-03T02:35:56.920Z,32.3
2018-08-03T02:36:58.540Z,32.7
2018-08-03T02:38:00.150Z,32.3
2018-08-03T02:39:01.617Z,32.3
2018-08-03T02:40:03.233Z,32.3
2018-08-03T02:41:04.702Z,32.3
2018-08-03T02:42:06.319Z,32.3
2018-08-03T02:43:07.931Z,32.7
2018-08-03T02:44:09.559Z,32.3
2018-08-03T02:45:10.844Z,31.8
2018-08-03T02:46:12.452Z,32.3
2018-08-03T02:47:14.043Z,32.7
2018-08-03T02:48:15.484Z,31.8
2018-08-03T02:49:17.100Z,31.8
2018-08-03T02:50:18.760Z,32.3
2018-08-03T02:51:20.198Z,32.7
2018-08-03T02:52:21.789Z,32.7
2018-08-03T02:53:23.388Z,32.3
2018-08-03T02:54:24.833Z,32.3
2018-08-03T02:55:26.113Z,32.3
2018-08-03T02:56:27.549Z,32.3
2018-08-03T02:57:29.154Z,32.3
2018-08-03T02:58:30.576Z,32.7
2018-08-03T02:59:31.850Z,32.3
2018-08-03T03:00:32.962Z,32.3
2018-08-03T03:01:34.408Z,31.8
2018-08-03T03:02:35.832Z,31.8
2018-08-03T03:03:37.433Z,32.7
2018-08-03T03:04:38.714Z,32.3
2018-08-03T03:05:40.321Z,32.3
2018-08-03T03:06:41.922Z,32.3
2018-08-03T03:07:43.520Z,32.7
2018-08-03T03:08:44.957Z,31.8
2018-08-03T03:09:46.564Z,31.8
2018-08-03T03:10:48.169Z,32.7
2018-08-03T03:11:49.617Z,31.3
2018-08-03T03:12:51.217Z,32.3
2018-08-03T03:13:52.323Z,31.8
2018-08-03T03:14:53.758Z,32.3
2018-08-03T03:15:55.385Z,31.3
2018-08-03T03:16:56.979Z,32.3
2018-08-03T03:17:58.578Z,32.3
2018-08-03T03:19:00.010Z,30.8
2018-08-03T03:20:01.484Z,32.7
2018-08-03T03:21:03.102Z,31.3
2018-08-03T03:22:04.704Z,32.3
2018-08-03T03:23:06.149Z,31.8
2018-08-03T03:24:07.744Z,31.3
2018-08-03T03:25:09.331Z,31.3
2018-08-03T03:26:10.798Z,31.3
2018-08-03T03:27:12.400Z,31.8
2018-08-03T03:28:14.013Z,31.8
2018-08-03T03:29:15.607Z,31.8
2018-08-03T03:30:17.216Z,31.8
2018-08-03T03:31:18.537Z,31.3
2018-08-03T03:32:20.148Z,31.8
2018-08-03T03:33:21.804Z,31.8
2018-08-03T03:34:23.427Z,30.8
2018-08-03T03:35:24.865Z,31.3
2018-08-03T03:36:26.502Z,32.3
2018-08-03T03:37:28.107Z,32.7
2018-08-03T03:38:29.703Z,31.8
2018-08-03T03:39:31.164Z,32.3
2018-08-03T03:40:32.779Z,32.3
2018-08-03T03:41:34.376Z,32.3
2018-08-03T03:42:35.986Z,32.3
2018-08-03T03:43:37.430Z,32.3
2018-08-03T03:44:38.712Z,32.7
2018-08-03T03:45:40.946Z,32.3
2018-08-03T03:46:42.452Z,32.7
2018-08-03T03:47:44.054Z,33.2
2018-08-03T03:48:45.495Z,32.3
2018-08-03T03:49:46.952Z,33.2
2018-08-03T03:50:48.544Z,32.3
2018-08-03T03:51:49.984Z,33.2
2018-08-03T03:52:51.414Z,33.2
2018-08-03T03:53:52.863Z,33.7
2018-08-03T03:54:54.472Z,32.7
2018-08-03T03:55:55.910Z,32.3
2018-08-03T03:56:57.505Z,32.7
2018-08-03T03:57:59.117Z,32.3
2018-08-03T03:59:00.718Z,32.7
2018-08-03T04:00:02.339Z,32.7
2018-08-03T04:01:03.947Z,33.2
2018-08-03T04:02:05.557Z,33.2
2018-08-03T04:03:07.186Z,32.7
2018-08-03T04:04:08.717Z,32.3
2018-08-03T04:05:10.196Z,33.2
2018-08-03T04:06:11.635Z,32.7
2018-08-03T04:07:13.255Z,32.3
2018-08-03T04:08:14.715Z,32.7
2018-08-03T04:09:16.179Z,33.2
2018-08-03T04:10:17.798Z,32.7
2018-08-03T04:11:19.391Z,33.2
2018-08-03T04:12:21.429Z,32.7
2018-08-03T04:13:22.788Z,33.2
2018-08-03T04:14:24.396Z,33.2
2018-08-03T04:15:26.032Z,31.8
2018-08-03T04:16:27.484Z,32.7
2018-08-03T04:17:28.911Z,32.7
2018-08-03T04:18:30.493Z,32.7
2018-08-03T04:19:32.090Z,32.3
2018-08-03T04:20:33.673Z,32.7
2018-08-03T04:21:35.272Z,32.7
2018-08-03T04:22:36.767Z,33.2
2018-08-03T04:23:38.440Z,32.7
2018-08-03T04:24:40.067Z,32.3
2018-08-03T04:25:42.180Z,32.3
2018-08-03T04:26:43.811Z,32.7
2018-08-03T04:27:45.248Z,32.7
2018-08-03T04:28:46.701Z,32.7
2018-08-03T04:29:47.961Z,32.7
2018-08-03T04:30:49.429Z,32.3
2018-08-03T04:31:51.031Z,33.2
2018-08-03T04:32:52.627Z,32.3
2018-08-03T04:33:53.901Z,32.3
2018-08-03T04:34:55.508Z,32.3
2018-08-03T04:35:56.959Z,33.2
2018-08-03T04:36:58.592Z,32.7
2018-08-03T04:38:00.202Z,32.3
2018-08-03T04:39:01.885Z,32.3
2018-08-03T04:40:03.576Z,32.3
2018-08-03T04:41:05.003Z,32.3
2018-08-03T04:42:06.830Z,32.3
2018-08-03T04:43:08.296Z,32.3
2018-08-03T04:44:09.765Z,32.7
2018-08-03T04:45:11.376Z,32.7
2018-08-03T04:46:12.982Z,32.3
2018-08-03T04:47:14.413Z,32.3
2018-08-03T04:48:15.843Z,32.7
2018-08-03T04:49:17.352Z,32.3
2018-08-03T04:50:19.029Z,32.7
2018-08-03T04:51:20.698Z,31.8
2018-08-03T04:52:22.315Z,32.3
2018-08-03T04:53:23.907Z,31.8
2018-08-03T04:54:25.339Z,32.3
2018-08-03T04:55:26.628Z,32.3
2018-08-03T04:56:28.072Z,32.3
2018-08-03T04:57:29.666Z,32.3
2018-08-03T04:58:31.103Z,32.7
2018-08-03T04:59:32.697Z,31.8
2018-08-03T05:00:34.144Z,32.3
2018-08-03T05:01:35.731Z,32.3
2018-08-03T05:02:37.333Z,32.7
2018-08-03T05:03:38.763Z,31.8
2018-08-03T05:04:40.398Z,31.8
2018-08-03T05:05:42.044Z,32.7
2018-08-03T05:06:43.656Z,32.3
2018-08-03T05:07:45.281Z,31.8
2018-08-03T05:08:46.726Z,32.3
2018-08-03T05:09:48.331Z,32.3
2018-08-03T05:10:49.764Z,32.3
2018-08-03T05:11:51.214Z,32.3
2018-08-03T05:12:52.649Z,31.8
2018-08-03T05:13:54.261Z,31.8
2018-08-03T05:14:55.871Z,32.3
2018-08-03T05:15:57.367Z,32.3
2018-08-03T05:16:58.972Z,31.3
2018-08-03T05:18:00.417Z,31.8
2018-08-03T05:19:01.702Z,31.3
2018-08-03T05:20:03.139Z,31.3
2018-08-03T05:21:04.737Z,31.8
2018-08-03T05:22:06.018Z,32.7
2018-08-03T05:23:07.631Z,32.3
2018-08-03T05:24:09.332Z,31.8
2018-08-03T05:25:10.998Z,31.8
2018-08-03T05:26:12.431Z,31.3
2018-08-03T05:27:14.028Z,31.3
2018-08-03T05:28:15.324Z,31.8
2018-08-03T05:29:16.950Z,31.8
2018-08-03T05:30:18.706Z,31.3
2018-08-03T05:31:20.368Z,31.8
2018-08-03T05:32:21.641Z,31.3
2018-08-03T05:33:23.086Z,30.3
2018-08-03T05:34:24.690Z,31.8
2018-08-03T05:35:26.569Z,31.3
2018-08-03T05:36:27.838Z,31.8
2018-08-03T05:37:29.467Z,31.3
2018-08-03T05:38:31.082Z,31.8
2018-08-03T05:39:32.697Z,31.8
2018-08-03T05:40:34.306Z,31.3
2018-08-03T05:41:35.910Z,31.3
2018-08-03T05:42:38.153Z,31.3
2018-08-03T05:43:39.946Z,32.3
2018-08-03T05:44:41.547Z,32.3
2018-08-03T05:45:43.144Z,32.3
2018-08-03T05:46:44.576Z,32.3
2018-08-03T05:47:46.215Z,32.3
2018-08-03T05:48:47.821Z,32.3
2018-08-03T05:49:49.459Z,32.7
2018-08-03T05:50:51.080Z,32.3
2018-08-03T05:51:52.673Z,32.7
2018-08-03T05:52:54.327Z,32.3
2018-08-03T05:53:55.920Z,32.7
2018-08-03T05:54:57.498Z,32.7
2018-08-03T05:55:58.949Z,32.7
2018-08-03T05:57:00.220Z,32.3
2018-08-03T05:58:02.134Z,32.7
2018-08-03T05:59:03.879Z,32.7
2018-08-03T06:00:05.490Z,32.3
2018-08-03T06:01:07.108Z,33.2
2018-08-03T06:02:08.376Z,33.2
2018-08-03T06:03:09.994Z,32.3
2018-08-03T06:04:11.481Z,32.7
2018-08-03T06:05:12.756Z,32.7
2018-08-03T06:06:14.382Z,32.7
2018-08-03T06:07:15.829Z,32.7
2018-08-03T06:08:17.915Z,33.2
2018-08-03T06:09:19.025Z,32.7
2018-08-03T06:10:20.479Z,32.3
2018-08-03T06:11:22.071Z,33.2
2018-08-03T06:12:23.658Z,32.7
2018-08-03T06:13:25.292Z,33.2
2018-08-03T06:14:26.908Z,33.2
2018-08-03T06:15:28.527Z,32.3
2018-08-03T06:16:29.987Z,32.7
2018-08-03T06:17:31.271Z,32.7
2018-08-03T06:18:32.718Z,33.2
2018-08-03T06:19:34.400Z,32.7
2018-08-03T06:20:36.299Z,32.3
2018-08-03T06:21:37.950Z,33.2
2018-08-03T06:22:39.565Z,33.2
2018-08-03T06:23:41.010Z,33.7
2018-08-03T06:24:42.446Z,32.7
2018-08-03T06:25:44.048Z,32.7
2018-08-03T06:26:45.482Z,33.2
2018-08-03T06:27:46.763Z,33.2
2018-08-03T06:28:48.248Z,33.2
2018-08-03T06:29:50.448Z,32.7
2018-08-03T06:30:52.054Z,32.7
2018-08-03T06:31:53.725Z,32.3
2018-08-03T06:32:55.172Z,32.7
2018-08-03T06:33:56.805Z,32.7
2018-08-03T06:34:58.459Z,32.7
2018-08-03T06:35:59.891Z,33.2
2018-08-03T06:37:01.511Z,32.7
2018-08-03T06:38:03.127Z,33.2
2018-08-03T06:39:04.581Z,32.3
2018-08-03T06:40:06.034Z,33.2
2018-08-03T06:41:07.628Z,32.7
2018-08-03T06:42:09.236Z,32.3
2018-08-03T06:43:10.683Z,33.2
2018-08-03T06:44:12.294Z,32.7
2018-08-03T06:45:13.734Z,32.3
2018-08-03T06:46:15.175Z,32.7
2018-08-03T06:47:16.792Z,33.2
2018-08-03T06:48:18.591Z,33.2
2018-08-03T06:49:20.225Z,33.2
2018-08-03T06:50:21.814Z,33.2
2018-08-03T06:51:23.258Z,32.7
2018-08-03T06:52:24.713Z,32.7
2018-08-03T06:53:26.330Z,32.7
2018-08-03T06:54:27.944Z,32.7
2018-08-03T06:55:29.395Z,32.3
2018-08-03T06:56:31.022Z,32.7
2018-08-03T06:57:32.936Z,31.8
2018-08-03T06:58:34.568Z,32.7
2018-08-03T06:59:36.042Z,33.2
2018-08-03T07:00:37.528Z,32.7
2018-08-03T07:01:39.145Z,32.3
2018-08-03T07:02:40.870Z,32.7
2018-08-03T07:03:42.565Z,32.7
2018-08-03T07:04:44.198Z,32.3
2018-08-03T07:05:45.811Z,32.3
2018-08-03T07:06:47.405Z,32.7
2018-08-03T07:07:48.851Z,33.2
2018-08-03T07:08:50.309Z,33.2
2018-08-03T07:09:51.925Z,33.7
2018-08-03T07:10:53.541Z,34.2
2018-08-03T07:11:55.125Z,33.7
2018-08-03T07:12:56.720Z,34.2
2018-08-03T07:13:58.321Z,33.7
2018-08-03T07:15:00.519Z,33.2
2018-08-03T07:16:02.248Z,33.7
2018-08-03T07:17:04.021Z,33.7
2018-08-03T07:18:05.393Z,33.7
2018-08-03T07:19:06.904Z,33.7
2018-08-03T07:20:09.232Z,34.2
2018-08-03T07:21:11.169Z,33.7
2018-08-03T07:22:12.772Z,33.7
2018-08-03T07:23:14.224Z,34.2
2018-08-03T07:24:15.667Z,33.7
2018-08-03T07:25:17.274Z,32.7
2018-08-03T07:26:18.703Z,33.2
2018-08-03T07:27:20.136Z,33.7
2018-08-03T07:28:21.775Z,33.2
2018-08-03T07:29:23.395Z,33.2
2018-08-03T07:30:24.988Z,33.2
2018-08-03T07:31:26.265Z,32.3
2018-08-03T07:32:27.556Z,33.2
2018-08-03T07:33:28.988Z,33.7
2018-08-03T07:34:30.601Z,33.2
2018-08-03T07:35:32.031Z,33.2
2018-08-03T07:36:33.646Z,33.2
2018-08-03T07:37:35.094Z,32.7
2018-08-03T07:38:36.362Z,32.7
2018-08-03T07:39:37.958Z,32.7
2018-08-03T07:40:39.418Z,33.2
2018-08-03T07:41:40.879Z,33.2
2018-08-03T07:42:42.172Z,33.2
2018-08-03T07:43:43.600Z,33.2
2018-08-03T07:44:45.119Z,33.2
2018-08-03T07:45:46.725Z,33.7
2018-08-03T07:46:48.327Z,33.7
2018-08-03T07:47:49.944Z,32.7
2018-08-03T07:48:51.441Z,33.2
2018-08-03T07:49:53.046Z,33.2
2018-08-03T07:50:54.338Z,34.2
2018-08-03T07:51:55.945Z,33.2
2018-08-03T07:52:57.375Z,34.2
2018-08-03T07:53:58.979Z,33.7
2018-08-03T07:55:00.583Z,33.7
2018-08-03T07:56:02.190Z,33.7
2018-08-03T07:57:03.778Z,33.2
2018-08-03T07:58:20.085Z,33.7
2018-08-03T07:59:21.529Z,33.2
2018-08-03T08:00:23.124Z,33.7
2018-08-03T08:01:24.573Z,33.7
2018-08-03T08:02:26.022Z,33.7
2018-08-03T08:03:27.468Z,33.7
2018-08-03T08:04:29.065Z,34.2
2018-08-03T08:05:30.685Z,33.2
2018-08-03T08:06:32.141Z,33.7
2018-08-03T08:07:33.838Z,34.2
2018-08-03T08:08:35.280Z,33.2
2018-08-03T08:09:36.959Z,34.2
2018-08-03T08:10:38.604Z,33.2
2018-08-03T08:11:39.893Z,33.7
2018-08-03T08:12:41.328Z,33.7
2018-08-03T08:13:42.778Z,33.7
2018-08-03T08:14:44.063Z,34.2
2018-08-03T08:15:45.687Z,33.7
2018-08-03T08:16:47.138Z,33.7
2018-08-03T08:17:48.746Z,34.2
2018-08-03T08:18:50.017Z,34.2
2018-08-03T08:19:51.625Z,33.2
2018-08-03T08:20:53.070Z,33.7
2018-08-03T08:21:54.500Z,33.7
2018-08-03T08:22:56.094Z,33.7
2018-08-03T08:23:57.522Z,33.2
2018-08-03T08:24:59.137Z,34.2
2018-08-03T08:26:00.740Z,33.7
2018-08-03T08:27:02.219Z,33.2
2018-08-03T08:28:03.669Z,34.2
2018-08-03T08:29:05.261Z,34.2
2018-08-03T08:30:06.877Z,33.7
2018-08-03T08:31:08.330Z,33.2
2018-08-03T08:32:09.797Z,33.7
2018-08-03T08:33:11.241Z,33.7
2018-08-03T08:34:12.824Z,33.7
2018-08-03T08:35:14.262Z,33.2
2018-08-03T08:36:15.696Z,33.7
2018-08-03T08:37:17.332Z,33.2
2018-08-03T08:38:18.967Z,33.2
2018-08-03T08:39:20.419Z,33.7
2018-08-03T08:40:21.850Z,33.2
2018-08-03T08:41:23.469Z,34.2
2018-08-03T08:42:24.918Z,33.7
2018-08-03T08:43:26.833Z,33.2
2018-08-03T08:44:28.501Z,33.2
2018-08-03T08:45:30.113Z,33.2
2018-08-03T08:46:31.730Z,33.7
2018-08-03T08:47:33.177Z,33.2
2018-08-03T08:48:34.836Z,33.2
2018-08-03T08:49:36.319Z,32.7
2018-08-03T08:50:38.018Z,33.7
2018-08-03T08:51:39.668Z,33.2
2018-08-03T08:52:41.289Z,32.7
2018-08-03T08:53:42.749Z,33.2
2018-08-03T08:54:44.738Z,33.2
2018-08-03T08:55:46.298Z,32.7
2018-08-03T08:56:47.926Z,33.7
2018-08-03T08:57:49.541Z,33.2
2018-08-03T08:58:50.989Z,32.7
2018-08-03T08:59:52.618Z,32.7
2018-08-03T09:00:54.884Z,33.7
2018-08-03T09:01:56.462Z,32.3
2018-08-03T09:02:58.093Z,33.7
2018-08-03T09:03:59.752Z,33.2
2018-08-03T09:05:01.207Z,33.2
2018-08-03T09:06:02.808Z,32.7
2018-08-03T09:07:04.410Z,32.3
2018-08-03T09:08:05.521Z,32.7
2018-08-03T09:09:07.011Z,32.7
2018-08-03T09:10:08.611Z,33.2
2018-08-03T09:11:10.215Z,32.7
2018-08-03T09:12:11.811Z,32.7
2018-08-03T09:13:13.760Z,32.3
2018-08-03T09:14:15.491Z,32.3
2018-08-03T09:15:17.110Z,32.7
2018-08-03T09:16:18.736Z,32.7
2018-08-03T09:17:20.360Z,32.7
2018-08-03T09:18:22.333Z,33.2
2018-08-03T09:19:24.057Z,32.7
2018-08-03T09:20:25.671Z,32.7
2018-08-03T09:21:27.304Z,33.2
2018-08-03T09:22:28.944Z,33.2
2018-08-03T09:23:30.550Z,33.2
2018-08-03T09:24:32.344Z,32.7
2018-08-03T09:25:33.791Z,32.3
2018-08-03T09:26:35.393Z,32.3
2018-08-03T09:27:37.003Z,32.3
2018-08-03T09:28:38.448Z,32.3
2018-08-03T09:29:40.075Z,32.7
2018-08-03T09:30:41.529Z,32.7
2018-08-03T09:31:43.121Z,32.7
2018-08-03T09:32:44.736Z,33.2
2018-08-03T09:33:45.868Z,32.3
2018-08-03T09:34:47.515Z,32.3
2018-08-03T09:35:49.127Z,32.3
2018-08-03T09:36:50.748Z,32.7
2018-08-03T09:37:52.214Z,32.3
2018-08-03T09:38:53.828Z,32.3
2018-08-03T09:39:55.455Z,32.7
2018-08-03T09:40:57.088Z,32.7
2018-08-03T09:41:58.387Z,33.2
2018-08-03T09:43:00.335Z,32.7
2018-08-03T09:44:02.138Z,33.2
2018-08-03T09:45:03.590Z,32.7
2018-08-03T09:46:05.205Z,32.7
2018-08-03T09:47:06.661Z,32.7
2018-08-03T09:48:08.279Z,33.7
2018-08-03T09:49:10.087Z,32.3
2018-08-03T09:50:11.751Z,33.2
2018-08-03T09:51:13.363Z,33.2
2018-08-03T09:52:14.975Z,33.7
2018-08-03T09:53:16.418Z,33.2
2018-08-03T09:54:18.020Z,33.7
2018-08-03T09:55:19.746Z,33.7
2018-08-03T09:56:21.488Z,33.2
2018-08-03T09:57:22.937Z,33.2
2018-08-03T09:58:24.389Z,33.7
2018-08-03T09:59:25.834Z,33.2
2018-08-03T10:00:27.433Z,33.7
2018-08-03T10:01:29.032Z,33.2
2018-08-03T10:02:30.505Z,33.7
2018-08-03T10:03:32.132Z,33.7
2018-08-03T10:04:33.738Z,34.2
2018-08-03T10:05:35.412Z,33.7
2018-08-03T10:06:36.687Z,33.7
2018-08-03T10:07:38.295Z,33.2
2018-08-03T10:08:40.130Z,33.7
2018-08-03T10:09:41.564Z,33.2
2018-08-03T10:10:43.174Z,33.7
2018-08-03T10:11:44.840Z,33.2
2018-08-03T10:12:46.413Z,33.7
2018-08-03T10:13:47.887Z,33.2
2018-08-03T10:14:49.511Z,33.7
2018-08-03T10:15:51.137Z,33.2
2018-08-03T10:16:52.764Z,33.7
2018-08-03T10:17:54.369Z,34.2
2018-08-03T10:18:55.986Z,33.7
2018-08-03T10:19:57.625Z,33.2
2018-08-03T10:20:59.259Z,33.7
2018-08-03T10:22:00.722Z,34.2
2018-08-03T10:23:02.316Z,33.7
2018-08-03T10:24:03.930Z,33.7
2018-08-03T10:25:05.224Z,33.7
2018-08-03T10:26:06.846Z,33.2
2018-08-03T10:27:08.279Z,33.7
2018-08-03T10:28:09.915Z,33.7
2018-08-03T10:29:11.530Z,33.7
2018-08-03T10:30:13.151Z,33.2
2018-08-03T10:31:14.791Z,33.2
2018-08-03T10:32:16.427Z,33.7
2018-08-03T10:33:17.865Z,33.7
2018-08-03T10:34:19.504Z,33.2
2018-08-03T10:35:21.124Z,32.7
2018-08-03T10:36:22.567Z,33.7
2018-08-03T10:37:23.873Z,33.2
2018-08-03T10:38:25.495Z,33.2
2018-08-03T10:39:26.951Z,33.7
2018-08-03T10:40:28.388Z,33.2
2018-08-03T10:41:29.680Z,33.7
2018-08-03T10:42:31.311Z,33.7
2018-08-03T10:43:32.810Z,33.2
2018-08-03T10:44:34.148Z,33.2
2018-08-03T10:45:35.921Z,33.2
2018-08-03T10:46:37.570Z,33.7
2018-08-03T10:47:38.896Z,33.2
2018-08-03T10:48:40.844Z,32.7
2018-08-03T10:49:42.499Z,33.2
2018-08-03T10:50:44.115Z,33.7
2018-08-03T10:51:45.712Z,33.2
2018-08-03T10:52:47.314Z,33.7
2018-08-03T10:53:48.922Z,32.7
2018-08-03T10:54:50.535Z,33.2
2018-08-03T10:55:52.020Z,33.2
2018-08-03T10:56:53.498Z,32.7
2018-08-03T10:57:55.110Z,32.7
2018-08-03T10:58:56.562Z,32.7
2018-08-03T10:59:58.236Z,33.7
2018-08-03T11:00:59.851Z,32.7
2018-08-03T11:02:01.485Z,32.7
2018-08-03T11:03:03.118Z,32.7
2018-08-03T11:04:04.747Z,32.3
2018-08-03T11:05:06.192Z,32.7
2018-08-03T11:06:07.852Z,32.7
2018-08-03T11:07:09.497Z,33.2
2018-08-03T11:08:11.110Z,32.7
2018-08-03T11:09:12.735Z,32.7
2018-08-03T11:10:14.350Z,32.7
2018-08-03T11:11:15.799Z,32.7
2018-08-03T11:12:17.402Z,32.7
2018-08-03T11:13:19.216Z,32.3
2018-08-03T11:14:20.853Z,32.7
2018-08-03T11:15:21.991Z,33.2
2018-08-03T11:16:23.642Z,32.7
2018-08-03T11:17:25.257Z,32.3
2018-08-03T11:18:26.891Z,32.7
2018-08-03T11:19:28.506Z,32.7
2018-08-03T11:20:30.131Z,32.7
2018-08-03T11:21:31.738Z,32.3
2018-08-03T11:22:33.195Z,32.3
2018-08-03T11:23:34.812Z,32.7
2018-08-03T11:24:36.272Z,32.7
2018-08-03T11:25:37.708Z,31.8
2018-08-03T11:26:38.991Z,32.3
2018-08-03T11:27:40.295Z,32.7
2018-08-03T11:28:41.918Z,32.7
2018-08-03T11:29:43.933Z,32.3
2018-08-03T11:30:45.611Z,31.8
2018-08-03T11:31:47.245Z,31.8
2018-08-03T11:32:48.877Z,32.3
2018-08-03T11:33:50.313Z,32.7
2018-08-03T11:34:51.942Z,32.7
2018-08-03T11:35:53.394Z,31.8
2018-08-03T11:36:55.031Z,32.3
2018-08-03T11:37:56.645Z,32.3
2018-08-03T11:38:58.249Z,32.3
2018-08-03T11:39:59.707Z,32.3
2018-08-03T11:41:01.321Z,32.3
2018-08-03T11:42:02.976Z,32.3
2018-08-03T11:44:13.998Z,32.3
2018-08-03T11:45:15.635Z,32.7
2018-08-03T11:46:17.273Z,32.7
2018-08-03T11:47:18.875Z,33.2
2018-08-03T11:48:20.868Z,32.7
2018-08-03T11:49:22.575Z,32.7
2018-08-03T11:50:24.197Z,32.7
2018-08-03T11:51:25.820Z,32.3
2018-08-03T11:52:27.435Z,32.7
2018-08-03T11:53:28.921Z,33.2
2018-08-03T11:54:30.593Z,32.7
2018-08-03T11:55:32.056Z,33.2
2018-08-03T11:56:33.519Z,32.7
2018-08-03T11:57:35.128Z,33.2
2018-08-03T11:58:36.807Z,33.7
2018-08-03T11:59:38.503Z,32.7
2018-08-03T12:00:39.961Z,33.7
2018-08-03T12:01:41.591Z,33.7
2018-08-03T12:02:43.063Z,32.7
2018-08-03T12:03:44.530Z,33.7
2018-08-03T12:04:45.804Z,33.2
2018-08-03T12:05:47.448Z,33.2
2018-08-03T12:06:48.931Z,33.2
2018-08-03T12:07:50.977Z,34.2
2018-08-03T12:08:52.651Z,33.2
2018-08-03T12:09:54.276Z,33.7
2018-08-03T12:10:55.907Z,33.2
2018-08-03T12:11:57.403Z,33.2
2018-08-03T12:12:58.914Z,33.2
2018-08-03T12:14:00.578Z,33.7
2018-08-03T12:15:01.908Z,33.7
2018-08-03T12:16:03.598Z,33.2
2018-08-03T12:17:05.046Z,33.2
2018-08-03T12:18:06.691Z,33.7
2018-08-03T12:19:08.324Z,33.2
2018-08-03T12:20:09.646Z,34.2
2018-08-03T12:21:11.335Z,33.2
2018-08-03T12:22:12.962Z,33.2
2018-08-03T12:23:14.424Z,34.2
2018-08-03T12:24:16.040Z,32.7
2018-08-03T12:25:17.389Z,33.7
2018-08-03T12:26:19.032Z,33.7
2018-08-03T12:27:20.125Z,33.2
2018-08-03T12:28:21.751Z,33.7
2018-08-03T12:29:23.185Z,33.7
2018-08-03T12:30:24.832Z,33.2
2018-08-03T12:31:26.612Z,33.7
2018-08-03T12:32:28.122Z,33.7
2018-08-03T12:33:29.399Z,33.7
2018-08-03T12:34:31.006Z,33.2
2018-08-03T12:35:32.631Z,32.7
2018-08-03T12:36:34.250Z,33.7
2018-08-03T12:37:35.548Z,33.2
2018-08-03T12:38:37.018Z,33.7
2018-08-03T12:39:38.632Z,33.2
2018-08-03T12:40:40.259Z,32.7
2018-08-03T12:41:41.744Z,33.7
2018-08-03T12:42:43.217Z,33.2
2018-08-03T12:43:44.661Z,33.2
2018-08-03T12:44:46.118Z,33.7
2018-08-03T12:45:47.407Z,33.7
2018-08-03T12:46:48.698Z,32.7
2018-08-03T12:47:50.318Z,32.7
2018-08-03T12:48:51.937Z,33.2
2018-08-03T12:49:53.595Z,33.2
2018-08-03T12:50:55.040Z,32.7
2018-08-03T12:51:56.692Z,33.2
2018-08-03T12:52:58.901Z,33.2
2018-08-03T12:54:00.622Z,33.2
2018-08-03T12:55:02.082Z,33.2
2018-08-03T12:56:03.737Z,33.2
2018-08-03T12:57:05.183Z,33.2
2018-08-03T12:58:06.780Z,32.7
2018-08-03T12:59:08.245Z,33.2
2018-08-03T13:00:09.884Z,33.2
2018-08-03T13:01:11.810Z,32.7
2018-08-03T13:02:13.505Z,32.7
2018-08-03T13:03:15.163Z,33.2
2018-08-03T13:04:17.010Z,33.2
2018-08-03T13:05:18.757Z,32.7
2018-08-03T13:06:20.198Z,32.7
2018-08-03T13:07:22.534Z,33.7
2018-08-03T13:08:25.570Z,32.7
2018-08-03T13:09:27.687Z,33.2
2018-08-03T13:10:29.357Z,34.2
2018-08-03T13:11:30.820Z,33.2
2018-08-03T13:12:32.309Z,32.7
2018-08-03T13:13:33.923Z,33.2
2018-08-03T13:14:35.539Z,32.7
2018-08-03T13:15:37.155Z,33.7
2018-08-03T13:16:38.608Z,32.7
2018-08-03T13:17:40.042Z,33.2
2018-08-03T13:18:41.704Z,32.7
2018-08-03T13:19:43.183Z,33.2
2018-08-03T13:20:44.801Z,33.2
2018-08-03T13:21:46.236Z,33.2
2018-08-03T13:22:47.842Z,32.3
2018-08-03T13:23:49.287Z,32.7
2018-08-03T13:24:50.734Z,32.3
2018-08-03T13:25:52.021Z,32.7
2018-08-03T13:26:53.627Z,32.7
2018-08-03T13:27:55.083Z,32.7
2018-08-03T13:28:56.555Z,32.7
2018-08-03T13:29:58.170Z,33.2
2018-08-03T13:30:59.794Z,33.2
2018-08-03T13:32:01.252Z,33.2
2018-08-03T13:33:02.937Z,33.7
2018-08-03T13:34:04.613Z,32.7
2018-08-03T13:35:06.052Z,32.3
2018-08-03T13:36:07.661Z,32.7
2018-08-03T13:37:08.954Z,32.7
2018-08-03T13:38:10.568Z,32.3
2018-08-03T13:39:12.527Z,32.7
2018-08-03T13:40:13.814Z,33.2